sensor_id;sensor_type;location;lat;lon;timestamp;P1;durP1;ratioP1;P2;durP2;ratioP2
3333;SDS011;1679;50.392;8.008;2022-12-18T00:03:47;65.13;;;26.00;;
3333;SDS011;1679;50.392;8.008;2022-12-18T00:06:13;70.60;;;25.63;;
3333;SDS011;1679;50.392;8.008;2022-12-18T00:08:41;53.13;;;23.47;;
3333;SDS011;1679;50.392;8.008;2022-12-18T00:11:11;77.33;;;23.87;;
3333;SDS011;1679;50.392;8.008;2022-12-18T00:13:38;71.13;;;24.43;;
3333;SDS011;1679;50.392;8.008;2022-12-18T00:16:05;62.10;;;23.00;;
3333;SDS011;1679;50.392;8.008;2022-12-18T00:18:32;65.83;;;24.10;;
3333;SDS011;1679;50.392;8.008;2022-12-18T00:21:02;60.43;;;23.90;;
3333;SDS011;1679;50.392;8.008;2022-12-18T00:23:31;72.60;;;28.37;;
3333;SDS011;1679;50.392;8.008;2022-12-18T00:26:00;62.40;;;23.77;;
3333;SDS011;1679;50.392;8.008;2022-12-18T00:28:34;60.60;;;25.13;;
3333;SDS011;1679;50.392;8.008;2022-12-18T00:31:03;55.20;;;24.13;;
3333;SDS011;1679;50.392;8.008;2022-12-18T00:33:30;64.20;;;25.80;;
3333;SDS011;1679;50.392;8.008;2022-12-18T00:36:00;70.13;;;26.13;;
3333;SDS011;1679;50.392;8.008;2022-12-18T00:38:26;59.60;;;24.07;;
3333;SDS011;1679;50.392;8.008;2022-12-18T00:40:54;68.20;;;27.20;;
3333;SDS011;1679;50.392;8.008;2022-12-18T00:43:20;61.27;;;25.10;;
3333;SDS011;1679;50.392;8.008;2022-12-18T00:45:47;58.20;;;24.37;;
3333;SDS011;1679;50.392;8.008;2022-12-18T00:48:12;58.83;;;26.17;;
3333;SDS011;1679;50.392;8.008;2022-12-18T00:50:38;63.73;;;26.17;;
3333;SDS011;1679;50.392;8.008;2022-12-18T00:53:04;52.90;;;25.10;;
3333;SDS011;1679;50.392;8.008;2022-12-18T00:55:29;59.43;;;25.00;;
3333;SDS011;1679;50.392;8.008;2022-12-18T00:57:55;66.13;;;23.77;;
3333;SDS011;1679;50.392;8.008;2022-12-18T01:00:20;56.57;;;25.17;;
3333;SDS011;1679;50.392;8.008;2022-12-18T01:02:46;57.80;;;23.23;;
3333;SDS011;1679;50.392;8.008;2022-12-18T01:05:12;52.80;;;21.80;;
3333;SDS011;1679;50.392;8.008;2022-12-18T01:07:39;62.43;;;24.80;;
3333;SDS011;1679;50.392;8.008;2022-12-18T01:10:05;53.97;;;23.50;;
3333;SDS011;1679;50.392;8.008;2022-12-18T01:12:31;56.27;;;25.27;;
3333;SDS011;1679;50.392;8.008;2022-12-18T01:14:57;54.63;;;24.00;;
3333;SDS011;1679;50.392;8.008;2022-12-18T01:17:23;49.60;;;21.67;;
3333;SDS011;1679;50.392;8.008;2022-12-18T01:19:49;52.30;;;24.77;;
3333;SDS011;1679;50.392;8.008;2022-12-18T01:22:15;66.70;;;27.60;;
3333;SDS011;1679;50.392;8.008;2022-12-18T01:24:40;60.20;;;27.10;;
3333;SDS011;1679;50.392;8.008;2022-12-18T01:27:06;54.87;;;25.27;;
3333;SDS011;1679;50.392;8.008;2022-12-18T01:29:31;60.33;;;25.33;;
3333;SDS011;1679;50.392;8.008;2022-12-18T01:31:57;54.47;;;24.43;;
3333;SDS011;1679;50.392;8.008;2022-12-18T01:34:23;63.97;;;27.73;;
3333;SDS011;1679;50.392;8.008;2022-12-18T01:36:48;50.80;;;23.80;;
3333;SDS011;1679;50.392;8.008;2022-12-18T01:39:17;55.27;;;25.20;;
3333;SDS011;1679;50.392;8.008;2022-12-18T01:41:43;57.37;;;24.23;;
3333;SDS011;1679;50.392;8.008;2022-12-18T01:52:41;50.03;;;22.53;;
3333;SDS011;1679;50.392;8.008;2022-12-18T01:55:11;50.53;;;22.70;;
3333;SDS011;1679;50.392;8.008;2022-12-18T01:57:39;58.33;;;23.77;;
3333;SDS011;1679;50.392;8.008;2022-12-18T02:00:11;52.83;;;22.90;;
3333;SDS011;1679;50.392;8.008;2022-12-18T02:02:39;54.50;;;23.07;;
3333;SDS011;1679;50.392;8.008;2022-12-18T02:05:07;61.03;;;26.07;;
3333;SDS011;1679;50.392;8.008;2022-12-18T02:10:31;60.03;;;23.43;;
3333;SDS011;1679;50.392;8.008;2022-12-18T02:13:12;52.20;;;23.97;;
3333;SDS011;1679;50.392;8.008;2022-12-18T02:15:41;49.00;;;23.10;;
3333;SDS011;1679;50.392;8.008;2022-12-18T02:18:20;58.20;;;24.60;;
3333;SDS011;1679;50.392;8.008;2022-12-18T02:20:52;49.90;;;23.53;;
3333;SDS011;1679;50.392;8.008;2022-12-18T02:26:30;48.90;;;21.20;;
3333;SDS011;1679;50.392;8.008;2022-12-18T02:29:08;53.40;;;22.80;;
3333;SDS011;1679;50.392;8.008;2022-12-18T02:31:57;55.83;;;22.60;;
3333;SDS011;1679;50.392;8.008;2022-12-18T02:34:30;61.63;;;23.53;;
3333;SDS011;1679;50.392;8.008;2022-12-18T02:36:58;52.13;;;22.67;;
3333;SDS011;1679;50.392;8.008;2022-12-18T02:39:26;45.90;;;22.33;;
3333;SDS011;1679;50.392;8.008;2022-12-18T02:41:57;49.90;;;22.60;;
3333;SDS011;1679;50.392;8.008;2022-12-18T02:44:26;48.20;;;22.90;;
3333;SDS011;1679;50.392;8.008;2022-12-18T02:46:53;52.90;;;23.17;;
3333;SDS011;1679;50.392;8.008;2022-12-18T02:58:03;47.67;;;22.60;;
3333;SDS011;1679;50.392;8.008;2022-12-18T03:03:13;49.43;;;23.50;;
3333;SDS011;1679;50.392;8.008;2022-12-18T03:06:01;47.23;;;21.60;;
3333;SDS011;1679;50.392;8.008;2022-12-18T03:08:38;53.87;;;25.87;;
3333;SDS011;1679;50.392;8.008;2022-12-18T03:11:08;47.67;;;21.00;;
3333;SDS011;1679;50.392;8.008;2022-12-18T03:13:37;46.10;;;22.83;;
3333;SDS011;1679;50.392;8.008;2022-12-18T03:16:14;44.00;;;21.30;;
3333;SDS011;1679;50.392;8.008;2022-12-18T03:18:52;48.63;;;22.43;;
3333;SDS011;1679;50.392;8.008;2022-12-18T03:21:23;47.50;;;21.60;;
3333;SDS011;1679;50.392;8.008;2022-12-18T03:23:54;54.53;;;21.70;;
3333;SDS011;1679;50.392;8.008;2022-12-18T03:26:22;58.80;;;22.50;;
3333;SDS011;1679;50.392;8.008;2022-12-18T03:28:55;46.67;;;21.40;;
3333;SDS011;1679;50.392;8.008;2022-12-18T03:31:25;53.80;;;20.70;;
3333;SDS011;1679;50.392;8.008;2022-12-18T03:33:55;52.60;;;22.90;;
3333;SDS011;1679;50.392;8.008;2022-12-18T03:36:24;53.17;;;24.40;;
3333;SDS011;1679;50.392;8.008;2022-12-18T03:38:50;56.90;;;23.70;;
3333;SDS011;1679;50.392;8.008;2022-12-18T03:41:37;53.63;;;24.90;;
3333;SDS011;1679;50.392;8.008;2022-12-18T03:44:14;54.03;;;22.60;;
3333;SDS011;1679;50.392;8.008;2022-12-18T03:47:05;50.40;;;21.77;;
3333;SDS011;1679;50.392;8.008;2022-12-18T03:49:40;52.30;;;22.20;;
3333;SDS011;1679;50.392;8.008;2022-12-18T03:52:20;57.27;;;22.77;;
3333;SDS011;1679;50.392;8.008;2022-12-18T03:54:52;52.17;;;20.63;;
3333;SDS011;1679;50.392;8.008;2022-12-18T03:57:21;53.70;;;23.20;;
3333;SDS011;1679;50.392;8.008;2022-12-18T03:59:54;54.57;;;24.13;;
3333;SDS011;1679;50.392;8.008;2022-12-18T04:02:22;50.77;;;21.30;;
3333;SDS011;1679;50.392;8.008;2022-12-18T04:04:52;45.73;;;20.93;;
3333;SDS011;1679;50.392;8.008;2022-12-18T04:07:22;46.97;;;21.47;;
3333;SDS011;1679;50.392;8.008;2022-12-18T04:09:49;46.50;;;20.60;;
3333;SDS011;1679;50.392;8.008;2022-12-18T04:12:18;46.40;;;18.83;;
3333;SDS011;1679;50.392;8.008;2022-12-18T04:14:44;43.90;;;20.70;;
3333;SDS011;1679;50.392;8.008;2022-12-18T04:17:09;44.33;;;21.33;;
3333;SDS011;1679;50.392;8.008;2022-12-18T04:19:35;51.93;;;23.20;;
3333;SDS011;1679;50.392;8.008;2022-12-18T04:22:02;53.37;;;20.80;;
3333;SDS011;1679;50.392;8.008;2022-12-18T04:24:28;45.40;;;21.17;;
3333;SDS011;1679;50.392;8.008;2022-12-18T04:26:53;51.03;;;22.73;;
3333;SDS011;1679;50.392;8.008;2022-12-18T04:29:19;51.90;;;24.83;;
3333;SDS011;1679;50.392;8.008;2022-12-18T04:31:45;45.30;;;24.27;;
3333;SDS011;1679;50.392;8.008;2022-12-18T04:34:14;49.60;;;24.60;;
3333;SDS011;1679;50.392;8.008;2022-12-18T04:36:40;41.33;;;22.27;;
3333;SDS011;1679;50.392;8.008;2022-12-18T04:39:06;48.43;;;22.67;;
3333;SDS011;1679;50.392;8.008;2022-12-18T04:41:31;43.70;;;20.60;;
3333;SDS011;1679;50.392;8.008;2022-12-18T04:43:58;51.43;;;21.43;;
3333;SDS011;1679;50.392;8.008;2022-12-18T04:46:23;42.00;;;21.80;;
3333;SDS011;1679;50.392;8.008;2022-12-18T04:48:49;48.40;;;21.10;;
3333;SDS011;1679;50.392;8.008;2022-12-18T04:51:14;48.47;;;22.20;;
3333;SDS011;1679;50.392;8.008;2022-12-18T04:53:40;52.33;;;22.47;;
3333;SDS011;1679;50.392;8.008;2022-12-18T04:56:10;47.93;;;21.20;;
3333;SDS011;1679;50.392;8.008;2022-12-18T04:58:38;42.80;;;19.93;;
3333;SDS011;1679;50.392;8.008;2022-12-18T05:01:05;43.50;;;20.10;;
3333;SDS011;1679;50.392;8.008;2022-12-18T05:03:32;51.60;;;21.13;;
3333;SDS011;1679;50.392;8.008;2022-12-18T05:05:58;40.37;;;17.53;;
3333;SDS011;1679;50.392;8.008;2022-12-18T05:08:24;42.60;;;19.30;;
3333;SDS011;1679;50.392;8.008;2022-12-18T05:10:50;35.80;;;19.00;;
3333;SDS011;1679;50.392;8.008;2022-12-18T05:13:25;42.20;;;18.50;;
3333;SDS011;1679;50.392;8.008;2022-12-18T05:15:52;46.60;;;20.00;;
3333;SDS011;1679;50.392;8.008;2022-12-18T05:18:18;43.67;;;19.70;;
3333;SDS011;1679;50.392;8.008;2022-12-18T05:20:44;42.23;;;19.67;;
3333;SDS011;1679;50.392;8.008;2022-12-18T05:23:10;42.10;;;19.87;;
3333;SDS011;1679;50.392;8.008;2022-12-18T05:25:37;43.27;;;18.60;;
3333;SDS011;1679;50.392;8.008;2022-12-18T05:28:03;36.70;;;17.50;;
3333;SDS011;1679;50.392;8.008;2022-12-18T05:30:29;39.37;;;18.53;;
3333;SDS011;1679;50.392;8.008;2022-12-18T05:32:54;42.47;;;18.57;;
3333;SDS011;1679;50.392;8.008;2022-12-18T05:35:20;43.60;;;18.80;;
3333;SDS011;1679;50.392;8.008;2022-12-18T05:37:45;41.00;;;18.00;;
3333;SDS011;1679;50.392;8.008;2022-12-18T05:40:11;42.87;;;20.80;;
3333;SDS011;1679;50.392;8.008;2022-12-18T05:42:37;42.47;;;19.53;;
3333;SDS011;1679;50.392;8.008;2022-12-18T05:45:04;35.70;;;18.83;;
3333;SDS011;1679;50.392;8.008;2022-12-18T05:47:31;43.50;;;20.30;;
3333;SDS011;1679;50.392;8.008;2022-12-18T05:49:56;40.10;;;19.90;;
3333;SDS011;1679;50.392;8.008;2022-12-18T05:52:23;43.77;;;20.80;;
3333;SDS011;1679;50.392;8.008;2022-12-18T05:54:48;47.77;;;19.77;;
3333;SDS011;1679;50.392;8.008;2022-12-18T05:57:16;36.57;;;16.80;;
3333;SDS011;1679;50.392;8.008;2022-12-18T05:59:43;43.00;;;19.43;;
3333;SDS011;1679;50.392;8.008;2022-12-18T06:02:09;44.60;;;19.40;;
3333;SDS011;1679;50.392;8.008;2022-12-18T06:04:34;44.00;;;19.53;;
3333;SDS011;1679;50.392;8.008;2022-12-18T06:07:00;47.37;;;18.23;;
3333;SDS011;1679;50.392;8.008;2022-12-18T06:09:28;36.93;;;19.00;;
3333;SDS011;1679;50.392;8.008;2022-12-18T06:11:55;36.90;;;18.90;;
3333;SDS011;1679;50.392;8.008;2022-12-18T06:14:20;36.40;;;18.77;;
3333;SDS011;1679;50.392;8.008;2022-12-18T06:16:46;43.70;;;19.13;;
3333;SDS011;1679;50.392;8.008;2022-12-18T06:19:14;39.93;;;17.70;;
3333;SDS011;1679;50.392;8.008;2022-12-18T06:21:40;37.97;;;17.33;;
3333;SDS011;1679;50.392;8.008;2022-12-18T06:24:06;42.63;;;20.00;;
3333;SDS011;1679;50.392;8.008;2022-12-18T06:26:32;46.17;;;19.93;;
3333;SDS011;1679;50.392;8.008;2022-12-18T06:28:58;40.60;;;17.37;;
3333;SDS011;1679;50.392;8.008;2022-12-18T06:31:25;47.13;;;21.53;;
3333;SDS011;1679;50.392;8.008;2022-12-18T06:33:51;42.07;;;20.37;;
3333;SDS011;1679;50.392;8.008;2022-12-18T06:36:17;45.53;;;20.80;;
3333;SDS011;1679;50.392;8.008;2022-12-18T06:38:44;42.77;;;20.27;;
3333;SDS011;1679;50.392;8.008;2022-12-18T06:41:11;44.67;;;19.70;;
3333;SDS011;1679;50.392;8.008;2022-12-18T06:43:38;43.73;;;18.50;;
3333;SDS011;1679;50.392;8.008;2022-12-18T06:46:08;45.10;;;19.27;;
3333;SDS011;1679;50.392;8.008;2022-12-18T06:48:34;38.77;;;18.70;;
3333;SDS011;1679;50.392;8.008;2022-12-18T06:51:00;47.97;;;20.60;;
3333;SDS011;1679;50.392;8.008;2022-12-18T06:53:26;44.27;;;19.93;;
3333;SDS011;1679;50.392;8.008;2022-12-18T06:55:58;38.10;;;17.00;;
3333;SDS011;1679;50.392;8.008;2022-12-18T06:58:25;43.17;;;19.83;;
3333;SDS011;1679;50.392;8.008;2022-12-18T07:00:51;48.47;;;20.50;;
3333;SDS011;1679;50.392;8.008;2022-12-18T07:03:18;46.20;;;21.27;;
3333;SDS011;1679;50.392;8.008;2022-12-18T07:05:44;51.80;;;23.90;;
3333;SDS011;1679;50.392;8.008;2022-12-18T07:08:10;53.70;;;21.47;;
3333;SDS011;1679;50.392;8.008;2022-12-18T07:10:42;61.90;;;27.57;;
3333;SDS011;1679;50.392;8.008;2022-12-18T07:13:08;56.97;;;26.50;;
3333;SDS011;1679;50.392;8.008;2022-12-18T07:15:34;51.37;;;23.17;;
3333;SDS011;1679;50.392;8.008;2022-12-18T07:18:01;46.13;;;23.20;;
3333;SDS011;1679;50.392;8.008;2022-12-18T07:20:27;48.60;;;22.50;;
3333;SDS011;1679;50.392;8.008;2022-12-18T07:22:52;40.87;;;19.00;;
3333;SDS011;1679;50.392;8.008;2022-12-18T07:25:18;38.00;;;17.80;;
3333;SDS011;1679;50.392;8.008;2022-12-18T07:27:43;37.20;;;17.13;;
3333;SDS011;1679;50.392;8.008;2022-12-18T07:30:09;43.10;;;20.00;;
3333;SDS011;1679;50.392;8.008;2022-12-18T07:32:35;35.30;;;16.77;;
3333;SDS011;1679;50.392;8.008;2022-12-18T07:35:01;38.50;;;16.47;;
3333;SDS011;1679;50.392;8.008;2022-12-18T07:37:26;35.07;;;16.50;;
3333;SDS011;1679;50.392;8.008;2022-12-18T07:39:52;39.30;;;18.67;;
3333;SDS011;1679;50.392;8.008;2022-12-18T07:42:17;36.10;;;18.60;;
3333;SDS011;1679;50.392;8.008;2022-12-18T07:44:56;41.30;;;18.33;;
3333;SDS011;1679;50.392;8.008;2022-12-18T07:47:23;41.30;;;18.60;;
3333;SDS011;1679;50.392;8.008;2022-12-18T07:49:49;37.17;;;16.97;;
3333;SDS011;1679;50.392;8.008;2022-12-18T07:52:14;36.60;;;15.80;;
3333;SDS011;1679;50.392;8.008;2022-12-18T07:54:40;35.83;;;18.30;;
3333;SDS011;1679;50.392;8.008;2022-12-18T07:57:06;33.47;;;17.13;;
3333;SDS011;1679;50.392;8.008;2022-12-18T07:59:32;37.67;;;18.17;;
3333;SDS011;1679;50.392;8.008;2022-12-18T08:01:57;39.67;;;16.93;;
3333;SDS011;1679;50.392;8.008;2022-12-18T08:04:23;37.03;;;18.47;;
3333;SDS011;1679;50.392;8.008;2022-12-18T08:06:49;39.27;;;16.77;;
3333;SDS011;1679;50.392;8.008;2022-12-18T08:09:15;38.53;;;18.60;;
3333;SDS011;1679;50.392;8.008;2022-12-18T08:11:41;34.77;;;17.57;;
3333;SDS011;1679;50.392;8.008;2022-12-18T08:14:10;33.27;;;17.23;;
3333;SDS011;1679;50.392;8.008;2022-12-18T08:16:36;33.60;;;18.00;;
3333;SDS011;1679;50.392;8.008;2022-12-18T08:19:01;39.30;;;19.77;;
3333;SDS011;1679;50.392;8.008;2022-12-18T08:21:28;39.83;;;19.07;;
3333;SDS011;1679;50.392;8.008;2022-12-18T08:23:56;35.43;;;17.20;;
3333;SDS011;1679;50.392;8.008;2022-12-18T08:26:24;38.80;;;18.00;;
3333;SDS011;1679;50.392;8.008;2022-12-18T08:28:51;36.30;;;17.70;;
3333;SDS011;1679;50.392;8.008;2022-12-18T08:31:19;32.17;;;17.73;;
3333;SDS011;1679;50.392;8.008;2022-12-18T08:33:45;39.10;;;17.87;;
3333;SDS011;1679;50.392;8.008;2022-12-18T08:36:10;34.13;;;17.33;;
3333;SDS011;1679;50.392;8.008;2022-12-18T08:38:36;39.77;;;20.77;;
3333;SDS011;1679;50.392;8.008;2022-12-18T08:41:06;38.97;;;20.37;;
3333;SDS011;1679;50.392;8.008;2022-12-18T08:43:35;43.70;;;19.53;;
3333;SDS011;1679;50.392;8.008;2022-12-18T08:46:21;38.30;;;18.77;;
3333;SDS011;1679;50.392;8.008;2022-12-18T08:48:49;34.00;;;18.80;;
3333;SDS011;1679;50.392;8.008;2022-12-18T08:51:16;43.23;;;20.37;;
3333;SDS011;1679;50.392;8.008;2022-12-18T08:53:42;52.23;;;20.70;;
3333;SDS011;1679;50.392;8.008;2022-12-18T08:56:09;37.87;;;18.77;;
3333;SDS011;1679;50.392;8.008;2022-12-18T08:58:35;38.90;;;18.93;;
3333;SDS011;1679;50.392;8.008;2022-12-18T09:01:04;40.40;;;20.13;;
3333;SDS011;1679;50.392;8.008;2022-12-18T09:03:34;37.53;;;19.20;;
3333;SDS011;1679;50.392;8.008;2022-12-18T09:06:01;40.10;;;21.80;;
3333;SDS011;1679;50.392;8.008;2022-12-18T09:08:27;35.70;;;22.57;;
3333;SDS011;1679;50.392;8.008;2022-12-18T09:10:52;38.80;;;19.40;;
3333;SDS011;1679;50.392;8.008;2022-12-18T09:13:18;35.10;;;20.60;;
3333;SDS011;1679;50.392;8.008;2022-12-18T09:15:45;38.50;;;20.17;;
3333;SDS011;1679;50.392;8.008;2022-12-18T09:18:16;47.33;;;21.97;;
3333;SDS011;1679;50.392;8.008;2022-12-18T09:20:43;39.23;;;20.83;;
3333;SDS011;1679;50.392;8.008;2022-12-18T09:23:09;47.67;;;23.93;;
3333;SDS011;1679;50.392;8.008;2022-12-18T09:25:35;44.07;;;23.57;;
3333;SDS011;1679;50.392;8.008;2022-12-18T09:28:03;40.67;;;21.10;;
3333;SDS011;1679;50.392;8.008;2022-12-18T09:30:40;49.40;;;26.27;;
3333;SDS011;1679;50.392;8.008;2022-12-18T09:33:07;42.87;;;21.80;;
3333;SDS011;1679;50.392;8.008;2022-12-18T09:35:32;89.80;;;42.17;;
3333;SDS011;1679;50.392;8.008;2022-12-18T09:38:01;45.73;;;24.70;;
3333;SDS011;1679;50.392;8.008;2022-12-18T09:40:28;45.60;;;23.80;;
3333;SDS011;1679;50.392;8.008;2022-12-18T09:43:02;39.73;;;21.17;;
3333;SDS011;1679;50.392;8.008;2022-12-18T09:45:35;44.23;;;25.23;;
3333;SDS011;1679;50.392;8.008;2022-12-18T09:48:09;58.83;;;29.70;;
3333;SDS011;1679;50.392;8.008;2022-12-18T09:50:43;110.83;;;50.97;;
3333;SDS011;1679;50.392;8.008;2022-12-18T09:53:12;117.33;;;58.07;;
3333;SDS011;1679;50.392;8.008;2022-12-18T09:55:45;45.90;;;23.40;;
3333;SDS011;1679;50.392;8.008;2022-12-18T10:00:58;48.20;;;24.83;;
3333;SDS011;1679;50.392;8.008;2022-12-18T10:03:23;48.70;;;22.73;;
3333;SDS011;1679;50.392;8.008;2022-12-18T10:05:59;46.60;;;24.13;;
3333;SDS011;1679;50.392;8.008;2022-12-18T10:11:40;34.00;;;20.43;;
3333;SDS011;1679;50.392;8.008;2022-12-18T10:14:51;44.77;;;22.30;;
3333;SDS011;1679;50.392;8.008;2022-12-18T10:17:45;41.63;;;22.03;;
3333;SDS011;1679;50.392;8.008;2022-12-18T10:20:21;48.70;;;23.27;;
3333;SDS011;1679;50.392;8.008;2022-12-18T10:23:01;38.17;;;21.80;;
3333;SDS011;1679;50.392;8.008;2022-12-18T10:25:59;44.50;;;22.60;;
3333;SDS011;1679;50.392;8.008;2022-12-18T10:28:33;39.67;;;21.70;;
3333;SDS011;1679;50.392;8.008;2022-12-18T10:31:19;46.37;;;21.60;;
3333;SDS011;1679;50.392;8.008;2022-12-18T10:33:46;40.00;;;21.10;;
3333;SDS011;1679;50.392;8.008;2022-12-18T10:36:12;36.83;;;22.20;;
3333;SDS011;1679;50.392;8.008;2022-12-18T10:38:38;37.77;;;22.00;;
3333;SDS011;1679;50.392;8.008;2022-12-18T10:43:36;35.97;;;20.93;;
3333;SDS011;1679;50.392;8.008;2022-12-18T10:48:56;40.03;;;22.53;;
3333;SDS011;1679;50.392;8.008;2022-12-18T10:51:24;48.20;;;23.47;;
3333;SDS011;1679;50.392;8.008;2022-12-18T10:54:34;41.00;;;22.50;;
3333;SDS011;1679;50.392;8.008;2022-12-18T10:56:42;39.47;;;22.10;;
3333;SDS011;1679;50.392;8.008;2022-12-18T10:59:09;39.90;;;22.90;;
3333;SDS011;1679;50.392;8.008;2022-12-18T11:04:21;45.07;;;25.13;;
3333;SDS011;1679;50.392;8.008;2022-12-18T11:06:58;39.80;;;22.87;;
3333;SDS011;1679;50.392;8.008;2022-12-18T11:09:33;45.80;;;24.93;;
3333;SDS011;1679;50.392;8.008;2022-12-18T11:12:02;49.00;;;24.60;;
3333;SDS011;1679;50.392;8.008;2022-12-18T11:14:32;43.60;;;24.10;;
3333;SDS011;1679;50.392;8.008;2022-12-18T11:17:16;37.43;;;21.63;;
3333;SDS011;1679;50.392;8.008;2022-12-18T11:19:46;41.87;;;23.20;;
3333;SDS011;1679;50.392;8.008;2022-12-18T11:27:28;42.40;;;23.70;;
3333;SDS011;1679;50.392;8.008;2022-12-18T11:30:06;42.23;;;22.50;;
3333;SDS011;1679;50.392;8.008;2022-12-18T11:32:34;41.57;;;23.90;;
3333;SDS011;1679;50.392;8.008;2022-12-18T11:35:11;42.83;;;23.53;;
3333;SDS011;1679;50.392;8.008;2022-12-18T11:37:46;40.40;;;22.63;;
3333;SDS011;1679;50.392;8.008;2022-12-18T11:40:36;40.43;;;22.33;;
3333;SDS011;1679;50.392;8.008;2022-12-18T11:46:26;46.13;;;26.27;;
3333;SDS011;1679;50.392;8.008;2022-12-18T11:49:17;43.50;;;24.77;;
3333;SDS011;1679;50.392;8.008;2022-12-18T11:52:00;44.43;;;23.60;;
3333;SDS011;1679;50.392;8.008;2022-12-18T11:54:40;42.23;;;25.60;;
3333;SDS011;1679;50.392;8.008;2022-12-18T11:59:53;44.40;;;23.93;;
3333;SDS011;1679;50.392;8.008;2022-12-18T12:05:19;42.30;;;23.80;;
3333;SDS011;1679;50.392;8.008;2022-12-18T12:07:53;42.37;;;24.20;;
3333;SDS011;1679;50.392;8.008;2022-12-18T12:13:45;41.27;;;23.17;;
3333;SDS011;1679;50.392;8.008;2022-12-18T12:19:20;39.93;;;24.33;;
3333;SDS011;1679;50.392;8.008;2022-12-18T12:22:00;44.93;;;24.30;;
3333;SDS011;1679;50.392;8.008;2022-12-18T12:30:22;43.00;;;26.90;;
3333;SDS011;1679;50.392;8.008;2022-12-18T12:35:48;41.17;;;24.20;;
3333;SDS011;1679;50.392;8.008;2022-12-18T12:40:54;40.77;;;23.37;;
3333;SDS011;1679;50.392;8.008;2022-12-18T12:43:35;40.87;;;24.37;;
3333;SDS011;1679;50.392;8.008;2022-12-18T12:46:14;42.47;;;23.90;;
3333;SDS011;1679;50.392;8.008;2022-12-18T12:48:55;42.90;;;25.60;;
3333;SDS011;1679;50.392;8.008;2022-12-18T12:51:36;42.87;;;26.20;;
3333;SDS011;1679;50.392;8.008;2022-12-18T12:54:06;39.77;;;25.07;;
3333;SDS011;1679;50.392;8.008;2022-12-18T12:59:45;52.77;;;30.13;;
3333;SDS011;1679;50.392;8.008;2022-12-18T13:04:46;45.97;;;26.67;;
3333;SDS011;1679;50.392;8.008;2022-12-18T13:07:27;41.00;;;27.17;;
3333;SDS011;1679;50.392;8.008;2022-12-18T13:10:11;43.43;;;25.23;;
3333;SDS011;1679;50.392;8.008;2022-12-18T13:12:53;52.97;;;29.90;;
3333;SDS011;1679;50.392;8.008;2022-12-18T13:15:33;52.03;;;26.77;;
3333;SDS011;1679;50.392;8.008;2022-12-18T13:18:23;47.60;;;26.60;;
3333;SDS011;1679;50.392;8.008;2022-12-18T13:20:51;46.23;;;26.60;;
3333;SDS011;1679;50.392;8.008;2022-12-18T13:23:36;46.43;;;26.03;;
3333;SDS011;1679;50.392;8.008;2022-12-18T13:31:13;55.37;;;28.47;;
3333;SDS011;1679;50.392;8.008;2022-12-18T13:36:57;49.83;;;28.13;;
3333;SDS011;1679;50.392;8.008;2022-12-18T13:39:56;50.43;;;30.37;;
3333;SDS011;1679;50.392;8.008;2022-12-18T13:45:37;49.10;;;27.43;;
3333;SDS011;1679;50.392;8.008;2022-12-18T13:48:05;51.30;;;31.33;;
3333;SDS011;1679;50.392;8.008;2022-12-18T13:50:59;52.80;;;31.10;;
3333;SDS011;1679;50.392;8.008;2022-12-18T13:53:50;52.17;;;27.23;;
3333;SDS011;1679;50.392;8.008;2022-12-18T13:56:26;54.57;;;30.67;;
3333;SDS011;1679;50.392;8.008;2022-12-18T13:59:54;51.20;;;27.93;;
3333;SDS011;1679;50.392;8.008;2022-12-18T14:01:56;51.90;;;29.43;;
3333;SDS011;1679;50.392;8.008;2022-12-18T14:04:25;55.23;;;26.30;;
3333;SDS011;1679;50.392;8.008;2022-12-18T14:06:56;46.10;;;27.07;;
3333;SDS011;1679;50.392;8.008;2022-12-18T14:09:28;44.50;;;25.87;;
3333;SDS011;1679;50.392;8.008;2022-12-18T14:11:56;52.40;;;26.70;;
3333;SDS011;1679;50.392;8.008;2022-12-18T14:14:43;55.07;;;29.80;;
3333;SDS011;1679;50.392;8.008;2022-12-18T14:17:12;56.23;;;29.83;;
3333;SDS011;1679;50.392;8.008;2022-12-18T14:19:40;77.83;;;42.73;;
3333;SDS011;1679;50.392;8.008;2022-12-18T14:22:25;56.60;;;27.13;;
3333;SDS011;1679;50.392;8.008;2022-12-18T14:27:36;48.07;;;26.00;;
3333;SDS011;1679;50.392;8.008;2022-12-18T14:30:26;53.00;;;28.17;;
3333;SDS011;1679;50.392;8.008;2022-12-18T14:33:08;58.40;;;29.20;;
3333;SDS011;1679;50.392;8.008;2022-12-18T14:35:40;49.30;;;23.50;;
3333;SDS011;1679;50.392;8.008;2022-12-18T14:38:10;50.13;;;24.87;;
3333;SDS011;1679;50.392;8.008;2022-12-18T14:40:46;50.13;;;24.37;;
3333;SDS011;1679;50.392;8.008;2022-12-18T14:43:13;45.27;;;24.43;;
3333;SDS011;1679;50.392;8.008;2022-12-18T14:45:42;46.70;;;25.07;;
3333;SDS011;1679;50.392;8.008;2022-12-18T14:48:22;51.10;;;26.30;;
3333;SDS011;1679;50.392;8.008;2022-12-18T14:50:57;43.40;;;23.40;;
3333;SDS011;1679;50.392;8.008;2022-12-18T14:53:32;46.23;;;25.27;;
3333;SDS011;1679;50.392;8.008;2022-12-18T14:56:18;50.60;;;26.03;;
3333;SDS011;1679;50.392;8.008;2022-12-18T14:58:46;48.97;;;25.87;;
3333;SDS011;1679;50.392;8.008;2022-12-18T15:01:23;54.50;;;27.23;;
3333;SDS011;1679;50.392;8.008;2022-12-18T15:03:53;56.70;;;26.23;;
3333;SDS011;1679;50.392;8.008;2022-12-18T15:06:25;54.27;;;24.93;;
3333;SDS011;1679;50.392;8.008;2022-12-18T15:09:05;46.83;;;23.77;;
3333;SDS011;1679;50.392;8.008;2022-12-18T15:11:59;50.87;;;27.93;;
3333;SDS011;1679;50.392;8.008;2022-12-18T15:17:21;47.27;;;24.03;;
3333;SDS011;1679;50.392;8.008;2022-12-18T15:19:49;48.07;;;24.60;;
3333;SDS011;1679;50.392;8.008;2022-12-18T15:22:21;48.57;;;25.70;;
3333;SDS011;1679;50.392;8.008;2022-12-18T15:24:50;51.23;;;24.83;;
3333;SDS011;1679;50.392;8.008;2022-12-18T15:27:21;54.00;;;27.50;;
3333;SDS011;1679;50.392;8.008;2022-12-18T15:32:36;51.00;;;24.97;;
3333;SDS011;1679;50.392;8.008;2022-12-18T15:37:35;47.17;;;23.30;;
3333;SDS011;1679;50.392;8.008;2022-12-18T15:40:00;47.30;;;25.10;;
3333;SDS011;1679;50.392;8.008;2022-12-18T15:42:27;53.73;;;25.80;;
3333;SDS011;1679;50.392;8.008;2022-12-18T15:45:12;50.70;;;26.50;;
3333;SDS011;1679;50.392;8.008;2022-12-18T15:47:38;57.17;;;27.80;;
3333;SDS011;1679;50.392;8.008;2022-12-18T15:50:04;53.97;;;29.80;;
3333;SDS011;1679;50.392;8.008;2022-12-18T15:52:30;60.37;;;31.07;;
3333;SDS011;1679;50.392;8.008;2022-12-18T15:55:00;62.87;;;28.33;;
3333;SDS011;1679;50.392;8.008;2022-12-18T15:57:44;62.00;;;29.23;;
3333;SDS011;1679;50.392;8.008;2022-12-18T16:00:11;59.27;;;28.63;;
3333;SDS011;1679;50.392;8.008;2022-12-18T16:02:37;51.23;;;27.67;;
3333;SDS011;1679;50.392;8.008;2022-12-18T16:05:09;59.43;;;29.63;;
3333;SDS011;1679;50.392;8.008;2022-12-18T16:07:40;60.07;;;31.13;;
3333;SDS011;1679;50.392;8.008;2022-12-18T16:10:05;64.00;;;34.37;;
3333;SDS011;1679;50.392;8.008;2022-12-18T16:12:31;61.37;;;30.50;;
3333;SDS011;1679;50.392;8.008;2022-12-18T16:14:57;69.63;;;34.20;;
3333;SDS011;1679;50.392;8.008;2022-12-18T16:17:25;64.43;;;30.33;;
3333;SDS011;1679;50.392;8.008;2022-12-18T16:19:50;59.73;;;28.70;;
3333;SDS011;1679;50.392;8.008;2022-12-18T16:22:26;61.20;;;29.07;;
3333;SDS011;1679;50.392;8.008;2022-12-18T16:24:54;68.93;;;30.80;;
3333;SDS011;1679;50.392;8.008;2022-12-18T16:27:20;66.47;;;30.67;;
3333;SDS011;1679;50.392;8.008;2022-12-18T16:29:49;63.10;;;30.60;;
3333;SDS011;1679;50.392;8.008;2022-12-18T16:32:16;62.33;;;29.57;;
3333;SDS011;1679;50.392;8.008;2022-12-18T16:34:43;58.80;;;29.67;;
3333;SDS011;1679;50.392;8.008;2022-12-18T16:37:10;66.50;;;31.67;;
3333;SDS011;1679;50.392;8.008;2022-12-18T16:39:37;57.13;;;28.10;;
3333;SDS011;1679;50.392;8.008;2022-12-18T16:42:24;58.23;;;27.70;;
3333;SDS011;1679;50.392;8.008;2022-12-18T16:44:49;55.23;;;26.43;;
3333;SDS011;1679;50.392;8.008;2022-12-18T16:47:16;54.03;;;25.00;;
3333;SDS011;1679;50.392;8.008;2022-12-18T16:49:42;65.73;;;27.27;;